Time;durP1;ratioP1;P1;durP2;ratioP2;P2;SDS_P1;SDS_P2;PMS_P1;PMS_P2;Temp;Humidity;BMP_temperature;BMP_pressure;BME280_temperature;BME280_humidity;BME280_pressure;Samples;Min_cycle;Max_cycle;Signal;HPM_P1;HPM_P2
2024/03/14 00:01:21;;;;;;;5.65;3.60;;;12.10;99.90;;;;;;4160388;28;20501;-66
2024/03/14 00:03:22;;;;;;;5.00;3.80;;;12.10;99.90;;;;;;4160289;28;20430;-66
2024/03/14 00:05:22;;;;;;;5.82;3.92;;;12.10;99.90;;;;;;4160346;28;20091;-66
2024/03/14 00:07:23;;;;;;;8.88;4.32;;;12.10;99.90;;;;;;4160210;28;20037;-66
2024/03/14 00:09:25;;;;;;;5.15;4.07;;;12.10;99.90;;;;;;4160296;28;20466;-66
2024/03/14 00:11:29;;;;;;;7.03;3.58;;;12.10;99.90;;;;;;4160075;28;20037;-66
2024/03/14 00:13:30;;;;;;;5.97;4.05;;;12.10;99.90;;;;;;4159217;28;20075;-66
2024/03/14 00:15:30;;;;;;;6.90;4.03;;;12.10;99.90;;;;;;4160723;28;20108;-66
2024/03/14 00:17:32;;;;;;;5.55;3.95;;;12.10;99.90;;;;;;4155005;28;20049;-66
2024/03/14 00:19:33;;;;;;;6.78;3.67;;;12.10;99.90;;;;;;4158225;28;20080;-66
2024/03/14 00:21:38;;;;;;;7.15;3.67;;;12.10;99.90;;;;;;4159842;28;20375;-67
2024/03/14 00:23:39;;;;;;;6.20;4.00;;;12.10;99.90;;;;;;4160994;28;20121;-66
2024/03/14 00:25:40;;;;;;;5.45;3.70;;;12.10;99.90;;;;;;4159688;28;20071;-66
2024/03/14 00:27:43;;;;;;;5.20;3.75;;;12.10;99.90;;;;;;4160441;28;20053;-67
2024/03/14 00:29:45;;;;;;;5.55;4.07;;;12.10;99.90;;;;;;4156708;28;20108;-67
2024/03/14 00:31:47;;;;;;;5.68;3.90;;;12.10;99.90;;;;;;4173867;28;20045;-66
2024/03/14 00:33:47;;;;;;;6.15;3.80;;;12.00;99.90;;;;;;4161057;28;20045;-66
2024/03/14 00:35:48;;;;;;;5.70;4.20;;;12.00;99.90;;;;;;4159817;28;20033;-66
2024/03/14 00:37:48;;;;;;;5.22;4.03;;;12.00;99.90;;;;;;4160761;28;20382;-66
2024/03/14 00:39:49;;;;;;;6.00;4.25;;;12.00;99.90;;;;;;4158184;28;20405;-66
2024/03/14 00:41:50;;;;;;;7.53;4.57;;;12.00;99.90;;;;;;4159633;28;20053;-66
2024/03/14 00:43:51;;;;;;;6.10;4.00;;;12.00;99.90;;;;;;4160172;28;20041;-68
2024/03/14 00:45:52;;;;;;;5.65;4.20;;;12.00;99.90;;;;;;4158953;28;20041;-68
2024/03/14 00:47:53;;;;;;;5.95;4.07;;;12.00;99.90;;;;;;4158433;28;20076;-68
2024/03/14 00:49:53;;;;;;;5.88;4.45;;;11.90;99.90;;;;;;4156543;28;20041;-68
2024/03/14 00:51:56;;;;;;;9.77;4.50;;;11.90;99.90;;;;;;4157133;28;20406;-68
2024/03/14 00:53:56;;;;;;;6.40;4.25;;;11.90;99.90;;;;;;4160358;28;20065;-68
2024/03/14 00:55:58;;;;;;;7.28;4.63;;;11.90;99.90;;;;;;4158493;28;20045;-68
2024/03/14 00:58:02;;;;;;;7.28;4.18;;;11.90;99.90;;;;;;4156008;28;20056;-68
2024/03/14 01:00:13;;;;;;;6.00;4.03;;;11.90;99.90;;;;;;4160085;28;20045;-70
2024/03/14 01:02:14;;;;;;;5.88;3.85;;;11.80;99.90;;;;;;4159406;28;20466;-69
2024/03/14 01:04:16;;;;;;;7.63;4.78;;;11.90;99.90;;;;;;4160232;28;20375;-68
2024/03/14 01:06:17;;;;;;;6.38;3.92;;;11.90;99.90;;;;;;4158727;28;20112;-68
2024/03/14 01:08:17;;;;;;;5.20;3.80;;;11.80;99.90;;;;;;4153856;28;21628;-68
2024/03/14 01:10:18;;;;;;;6.20;4.00;;;11.90;99.90;;;;;;4154811;28;20045;-69
2024/03/14 01:12:18;;;;;;;5.18;3.72;;;11.80;99.90;;;;;;4156910;28;20046;-68
2024/03/14 01:14:20;;;;;;;6.53;4.38;;;11.80;99.90;;;;;;4159432;28;20605;-68
2024/03/14 01:16:21;;;;;;;5.80;4.47;;;11.80;99.90;;;;;;4157400;28;20504;-68
2024/03/14 01:18:22;;;;;;;7.63;4.72;;;11.80;99.90;;;;;;4157975;28;20361;-68
2024/03/14 01:20:22;;;;;;;6.90;4.80;;;11.80;99.90;;;;;;4157816;28;20045;-68
2024/03/14 01:22:23;;;;;;;6.38;4.43;;;11.70;99.90;;;;;;4160910;28;20043;-68
2024/03/14 01:24:24;;;;;;;5.82;3.92;;;11.80;99.90;;;;;;4160445;28;20045;-68
2024/03/14 01:26:24;;;;;;;5.32;4.13;;;11.70;99.90;;;;;;4159815;28;20562;-69
2024/03/14 01:28:25;;;;;;;8.40;5.30;;;11.80;99.90;;;;;;4156630;28;20061;-68
2024/03/14 01:30:25;;;;;;;6.68;4.68;;;11.70;99.90;;;;;;4156506;28;20044;-68
2024/03/14 01:32:26;;;;;;;5.47;4.40;;;11.70;99.90;;;;;;4149609;28;20505;-68
2024/03/14 01:34:26;;;;;;;5.50;4.55;;;11.70;99.90;;;;;;4157879;28;20068;-68
2024/03/14 01:36:27;;;;;;;4.97;3.97;;;11.70;99.90;;;;;;4158809;28;20094;-68
2024/03/14 01:38:28;;;;;;;8.05;4.85;;;11.60;99.90;;;;;;4159552;28;20521;-68
2024/03/14 01:40:29;;;;;;;5.30;4.15;;;11.60;99.90;;;;;;4156456;28;20034;-68
2024/03/14 01:42:30;;;;;;;8.70;5.05;;;11.60;99.90;;;;;;4158627;28;20029;-68
2024/03/14 01:44:58;;;;;;;7.18;4.53;;;11.60;99.90;;;;;;4152555;28;20041;-68
2024/03/14 01:46:58;;;;;;;7.32;4.82;;;11.60;99.90;;;;;;4158546;28;20030;-68
2024/03/14 01:49:01;;;;;;;5.63;4.50;;;11.50;99.90;;;;;;4158306;28;20687;-68
2024/03/14 01:51:01;;;;;;;6.68;4.53;;;11.50;99.90;;;;;;4156885;28;20044;-68
2024/03/14 01:53:02;;;;;;;6.25;4.57;;;11.50;99.90;;;;;;4157869;28;20432;-68
2024/03/14 01:55:04;;;;;;;6.45;4.60;;;11.50;99.90;;;;;;4158691;28;20033;-69
2024/03/14 01:57:04;;;;;;;6.80;4.90;;;11.50;99.90;;;;;;4155336;28;20624;-68
2024/03/14 01:59:06;;;;;;;6.38;4.20;;;11.50;99.90;;;;;;4157164;28;20395;-68
2024/03/14 02:01:09;;;;;;;8.47;5.13;;;11.50;99.90;;;;;;4158990;28;20060;-69
2024/03/14 02:03:13;;;;;;;6.75;4.88;;;11.50;99.90;;;;;;4160103;28;20323;-68
2024/03/14 02:05:34;;;;;;;6.80;4.93;;;11.50;99.90;;;;;;4158735;28;20049;-69
2024/03/14 02:07:39;;;;;;;7.15;4.47;;;11.50;99.90;;;;;;4157893;28;20125;-68
2024/03/14 02:09:46;;;;;;;8.23;4.85;;;11.40;99.90;;;;;;4158085;28;20037;-68
2024/03/14 02:11:47;;;;;;;7.72;4.95;;;11.40;99.90;;;;;;4155285;28;20030;-68
2024/03/14 02:13:47;;;;;;;7.95;4.47;;;11.40;99.90;;;;;;4159731;28;20044;-68
2024/03/14 02:15:48;;;;;;;8.77;5.22;;;11.40;99.90;;;;;;4158614;28;20029;-69
2024/03/14 02:17:50;;;;;;;8.32;5.07;;;11.40;99.90;;;;;;4156712;28;20045;-68
2024/03/14 02:19:50;;;;;;;6.70;4.63;;;11.40;99.90;;;;;;4158896;28;20038;-68
2024/03/14 02:21:51;;;;;;;7.65;4.63;;;11.30;99.90;;;;;;4158385;28;20047;-68
2024/03/14 02:23:51;;;;;;;5.93;4.30;;;11.40;99.90;;;;;;4159507;28;20099;-68
2024/03/14 02:25:54;;;;;;;8.80;4.57;;;11.30;99.90;;;;;;4154724;28;20037;-68
2024/03/14 02:27:55;;;;;;;5.70;4.18;;;11.30;99.90;;;;;;4156621;28;21332;-68
2024/03/14 02:29:55;;;;;;;8.32;4.50;;;11.30;99.90;;;;;;4158094;28;20072;-68
2024/03/14 02:31:56;;;;;;;6.65;4.90;;;11.30;99.90;;;;;;4158091;28;20065;-68
2024/03/14 02:33:56;;;;;;;6.90;5.20;;;11.20;99.90;;;;;;4159424;28;20121;-69
2024/03/14 02:35:57;;;;;;;6.68;4.78;;;11.20;99.90;;;;;;4158667;28;20034;-68
2024/03/14 02:37:58;;;;;;;6.13;4.30;;;11.20;99.90;;;;;;4159237;28;20367;-68
2024/03/14 02:39:59;;;;;;;6.22;4.88;;;11.20;99.90;;;;;;4158617;28;20044;-68
2024/03/14 02:41:59;;;;;;;8.05;5.00;;;11.20;99.90;;;;;;4154116;28;20041;-68
2024/03/14 02:44:15;;;;;;;7.70;5.32;;;11.20;99.90;;;;;;4157697;28;20456;-68
2024/03/14 02:46:16;;;;;;;7.22;4.78;;;11.20;99.90;;;;;;4155146;28;20049;-68
2024/03/14 02:48:17;;;;;;;6.43;4.53;;;11.10;99.90;;;;;;4158304;28;20045;-68
2024/03/14 02:50:18;;;;;;;5.47;4.53;;;11.20;99.90;;;;;;4154915;28;20041;-68
2024/03/14 02:52:18;;;;;;;5.88;4.38;;;11.10;99.90;;;;;;4157284;28;20490;-68
2024/03/14 02:54:19;;;;;;;6.20;4.35;;;11.10;99.90;;;;;;4158274;28;20406;-68
2024/03/14 02:56:20;;;;;;;8.40;4.65;;;11.20;99.90;;;;;;4157624;28;20064;-68
2024/03/14 02:58:21;;;;;;;6.05;4.35;;;11.10;99.90;;;;;;4158426;28;20559;-68
2024/03/14 03:00:22;;;;;;;5.22;4.22;;;11.10;99.90;;;;;;4156704;28;20037;-68
2024/03/14 03:02:25;;;;;;;7.60;4.18;;;11.10;99.90;;;;;;4154771;28;22660;-68
2024/03/14 03:04:30;;;;;;;7.28;4.43;;;11.10;99.90;;;;;;4158239;28;20531;-71
2024/03/14 03:06:33;;;;;;;5.82;4.05;;;11.10;99.90;;;;;;4158243;28;20486;-71
2024/03/14 03:08:33;;;;;;;;;;;11.00;99.90;;;;;;4153725;28;20037;-69
2024/03/14 03:10:34;;;;;;;6.38;4.60;;;11.00;99.90;;;;;;4156877;28;19917;-69
2024/03/14 03:12:39;;;;;;;10.70;4.70;;;11.00;99.90;;;;;;4159510;28;20038;-70
2024/03/14 03:14:39;;;;;;;6.97;4.90;;;11.00;99.90;;;;;;4158084;28;20057;-71
2024/03/14 03:16:40;;;;;;;7.28;4.43;;;11.00;99.90;;;;;;4157668;28;20474;-71
2024/03/14 03:18:41;;;;;;;6.50;4.38;;;11.00;99.90;;;;;;4157513;28;20037;-72
2024/03/14 03:20:42;;;;;;;5.15;3.70;;;11.00;99.90;;;;;;4151598;28;20116;-71
2024/03/14 03:25:02;;;;;;;6.50;4.18;;;11.00;99.90;;;;;;4160521;28;20034;-71
2024/03/14 03:27:03;;;;;;;6.35;4.60;;;11.00;99.90;;;;;;4144083;28;20088;-71
2024/03/14 03:29:06;;;;;;;7.65;4.72;;;10.90;99.90;;;;;;4152129;28;20409;-71
2024/03/14 03:31:08;;;;;;;6.93;4.47;;;11.00;99.90;;;;;;4156031;28;20375;-70
2024/03/14 03:33:11;;;;;;;;;;;10.90;99.90;;;;;;4193446;28;20039;-71
2024/03/14 03:35:18;;;;;;;6.22;4.32;;;10.90;99.90;;;;;;4160874;28;19909;-71
2024/03/14 03:37:18;;;;;;;5.50;4.13;;;10.90;99.90;;;;;;4161837;28;20470;-71
2024/03/14 03:39:19;;;;;;;5.45;4.38;;;10.90;99.90;;;;;;4161197;28;20072;-71
2024/03/14 03:41:23;;;;;;;6.32;4.35;;;10.90;99.90;;;;;;4154672;28;20494;-71
2024/03/14 03:43:25;;;;;;;5.28;4.00;;;10.90;99.90;;;;;;4162610;28;20402;-71
2024/03/14 03:45:27;;;;;;;6.47;3.80;;;10.90;99.90;;;;;;4161204;28;20041;-71
2024/03/14 03:47:27;;;;;;;5.18;3.67;;;10.90;99.90;;;;;;4160875;28;20500;-71
2024/03/14 03:49:28;;;;;;;6.80;3.97;;;10.90;99.90;;;;;;4161035;28;20045;-71
2024/03/14 03:51:28;;;;;;;6.32;4.10;;;10.90;99.90;;;;;;4158594;28;20034;-71
2024/03/14 03:53:29;;;;;;;4.93;3.80;;;10.90;99.90;;;;;;4152530;28;20565;-71
2024/03/14 03:55:32;;;;;;;6.50;3.97;;;10.90;99.90;;;;;;4154406;28;20037;-71
2024/03/14 03:57:33;;;;;;;6.38;4.03;;;10.90;99.90;;;;;;4154907;28;20038;-71
2024/03/14 03:59:34;;;;;;;3.78;3.15;;;10.90;99.90;;;;;;4155385;28;20528;-72
2024/03/14 04:01:35;;;;;;;4.85;3.67;;;10.90;99.90;;;;;;4148802;28;20060;-69
2024/03/14 04:03:36;;;;;;;5.07;3.50;;;10.90;99.90;;;;;;4140022;28;20083;-70
2024/03/14 04:05:42;;;;;;;5.25;3.55;;;10.90;99.90;;;;;;4148817;28;20429;-69
2024/03/14 04:07:43;;;;;;;5.80;3.50;;;10.90;99.90;;;;;;4151710;28;20333;-71
2024/03/14 04:09:47;;;;;;;4.78;3.47;;;10.90;99.90;;;;;;4155768;28;20045;-71
2024/03/14 04:11:47;;;;;;;5.05;3.30;;;10.90;99.90;;;;;;4159919;28;20045;-71
2024/03/14 04:13:48;;;;;;;4.55;3.53;;;10.90;99.90;;;;;;4159800;28;20393;-59
2024/03/14 04:15:48;;;;;;;5.28;3.63;;;10.90;99.90;;;;;;4146707;28;20068;-67
2024/03/14 04:17:51;;;;;;;4.72;3.42;;;10.90;99.90;;;;;;4159953;28;20060;-66
2024/03/14 04:19:51;;;;;;;4.70;3.30;;;10.90;99.90;;;;;;4158229;28;20034;-66
2024/03/14 04:21:53;;;;;;;4.35;3.30;;;10.90;99.90;;;;;;4160953;28;20041;-66
2024/03/14 04:23:56;;;;;;;5.10;3.65;;;10.90;99.90;;;;;;4159383;28;20108;-66
2024/03/14 04:25:56;;;;;;;4.93;3.65;;;10.90;99.90;;;;;;4156301;28;20445;-66
2024/03/14 04:27:57;;;;;;;4.25;3.20;;;10.90;99.90;;;;;;4160155;28;20037;-66
2024/03/14 04:29:58;;;;;;;5.55;3.60;;;10.90;99.90;;;;;;4160466;28;20124;-66
2024/03/14 04:31:58;;;;;;;5.00;3.05;;;10.80;99.90;;;;;;4160295;28;20068;-66
2024/03/14 04:33:59;;;;;;;4.70;3.45;;;10.80;99.90;;;;;;4160747;28;20041;-66
2024/03/14 04:35:59;;;;;;;4.45;3.30;;;10.80;99.90;;;;;;4160537;28;20497;-66
2024/03/14 04:38:00;;;;;;;3.38;2.75;;;10.80;99.90;;;;;;4158799;28;20382;-67
2024/03/14 04:40:04;;;;;;;3.35;3.00;;;10.80;99.90;;;;;;4153519;28;20099;-66
2024/03/14 04:42:05;;;;;;;4.38;3.30;;;10.80;99.90;;;;;;4156250;28;20509;-66
2024/03/14 04:44:07;;;;;;;5.60;3.60;;;10.80;99.90;;;;;;4161731;28;20029;-66
2024/03/14 04:46:09;;;;;;;5.55;3.42;;;10.70;99.90;;;;;;4158327;28;20440;-66
2024/03/14 04:48:09;;;;;;;4.90;3.10;;;10.70;99.90;;;;;;4158619;28;20037;-66
2024/03/14 04:50:11;;;;;;;6.65;3.38;;;10.70;99.90;;;;;;4153144;28;20127;-67
2024/03/14 04:52:12;;;;;;;6.03;3.63;;;10.70;99.90;;;;;;4158267;28;20037;-67
2024/03/14 04:54:14;;;;;;;3.90;2.80;;;10.70;99.90;;;;;;4158828;28;20042;-66
2024/03/14 04:56:15;;;;;;;4.20;3.20;;;10.60;99.90;;;;;;4155724;28;20049;-66
2024/03/14 04:58:16;;;;;;;3.72;3.00;;;10.60;99.90;;;;;;4155716;28;20410;-66
2024/03/14 05:02:19;;;;;;;5.32;3.45;;;10.60;99.90;;;;;;4160100;28;20038;-67
2024/03/14 05:04:21;;;;;;;4.43;3.58;;;10.60;99.90;;;;;;4160458;28;20085;-66
2024/03/14 05:06:22;;;;;;;5.65;3.47;;;10.60;99.90;;;;;;4158036;28;20099;-66
2024/03/14 05:08:23;;;;;;;4.60;3.30;;;10.60;99.90;;;;;;4158090;28;20080;-66
2024/03/14 05:10:23;;;;;;;5.57;3.55;;;10.60;99.90;;;;;;4158244;28;20447;-67
2024/03/14 05:12:24;;;;;;;5.22;3.55;;;10.60;99.90;;;;;;4158963;28;20065;-66
2024/03/14 05:14:24;;;;;;;6.55;3.10;;;10.60;99.90;;;;;;4158818;28;20037;-67
2024/03/14 05:16:26;;;;;;;4.25;2.92;;;10.60;99.90;;;;;;4158557;28;20051;-67
2024/03/14 05:18:26;;;;;;;4.13;3.10;;;10.50;99.90;;;;;;4157595;28;20052;-67
2024/03/14 05:20:27;;;;;;;4.22;2.90;;;10.60;99.90;;;;;;4158643;28;20140;-66
2024/03/14 05:22:34;;;;;;;4.53;2.50;;;10.60;99.90;;;;;;4160687;28;20033;-66
2024/03/14 05:24:36;;;;;;;4.03;2.90;;;10.50;99.90;;;;;;4157309;28;20037;-66
2024/03/14 05:26:37;;;;;;;4.68;3.10;;;10.50;99.90;;;;;;4158034;28;20092;-66
2024/03/14 05:28:37;;;;;;;3.72;2.78;;;10.50;99.90;;;;;;4158208;28;20500;-66
2024/03/14 05:30:38;;;;;;;4.35;2.95;;;10.50;99.90;;;;;;4158372;28;20033;-66
2024/03/14 05:32:38;;;;;;;5.63;3.03;;;10.50;99.90;;;;;;4157454;28;20060;-66
2024/03/14 05:34:39;;;;;;;3.53;2.63;;;10.50;99.90;;;;;;4157501;28;20032;-66
2024/03/14 05:36:40;;;;;;;3.53;2.58;;;10.50;99.90;;;;;;4153789;28;20486;-67
2024/03/14 05:38:41;;;;;;;4.13;2.50;;;10.50;99.90;;;;;;4173111;28;20040;-67
2024/03/14 05:40:42;;;;;;;4.45;3.03;;;10.50;99.90;;;;;;4157128;28;20402;-67
2024/03/14 05:42:42;;;;;;;2.80;2.22;;;10.50;99.90;;;;;;4159003;28;20045;-66
2024/03/14 05:44:43;;;;;;;4.40;2.88;;;10.40;99.90;;;;;;4159368;28;20034;-65
2024/03/14 05:46:46;;;;;;;3.63;2.92;;;10.40;99.90;;;;;;4157343;28;20037;-65
2024/03/14 05:48:47;;;;;;;4.30;2.72;;;10.40;99.90;;;;;;4159243;28;20037;-65
2024/03/14 05:50:47;;;;;;;2.58;2.30;;;10.40;99.90;;;;;;4152628;28;20558;-66
2024/03/14 05:52:49;;;;;;;3.58;2.80;;;10.30;99.90;;;;;;4152524;28;20041;-63
2024/03/14 05:54:50;;;;;;;4.45;3.25;;;10.40;99.90;;;;;;4157786;28;20444;-63
2024/03/14 05:56:51;;;;;;;3.05;2.42;;;10.40;99.90;;;;;;4155087;28;20131;-63
2024/03/14 05:58:51;;;;;;;3.58;2.53;;;10.30;99.90;;;;;;4153755;28;20050;-63
2024/03/14 06:00:54;;;;;;;3.30;2.38;;;10.30;99.90;;;;;;4152343;28;20029;-63
2024/03/14 06:02:54;;;;;;;2.92;2.30;;;10.30;99.90;;;;;;4158220;28;20355;-63
2024/03/14 06:04:55;;;;;;;3.80;2.47;;;10.30;99.90;;;;;;4157874;28;20041;-63
2024/03/14 06:06:56;;;;;;;4.30;2.70;;;10.30;99.90;;;;;;4155681;28;20065;-63
2024/03/14 06:08:56;;;;;;;3.30;2.40;;;10.30;99.90;;;;;;4153226;28;20062;-63
2024/03/14 06:10:57;;;;;;;3.00;2.38;;;10.30;99.90;;;;;;4156217;28;20037;-63
2024/03/14 06:12:57;;;;;;;3.60;2.30;;;10.30;99.90;;;;;;4152843;28;20088;-63
2024/03/14 06:14:58;;;;;;;4.43;2.50;;;10.30;99.90;;;;;;4154900;28;20522;-63
2024/03/14 06:16:59;;;;;;;5.03;2.75;;;10.30;99.90;;;;;;4153707;28;20038;-63
2024/03/14 06:18:59;;;;;;;3.20;2.38;;;10.30;99.90;;;;;;4152873;28;20037;-63
2024/03/14 06:21:00;;;;;;;3.40;2.47;;;10.30;99.90;;;;;;4154526;28;20041;-63
2024/03/14 06:23:01;;;;;;;4.07;2.50;;;10.30;99.90;;;;;;4154729;28;20088;-63
2024/03/14 06:25:02;;;;;;;3.10;2.38;;;10.30;99.90;;;;;;4155068;28;20541;-63
2024/03/14 06:27:03;;;;;;;3.75;2.70;;;10.20;99.90;;;;;;4146059;28;20344;-63
2024/03/14 06:29:04;;;;;;;6.05;2.60;;;10.20;99.90;;;;;;4125524;28;20107;-62
2024/03/14 06:31:05;;;;;;;6.57;2.75;;;10.20;99.90;;;;;;4142829;28;20087;-62
2024/03/14 06:33:05;;;;;;;3.83;2.80;;;10.20;99.90;;;;;;4141939;28;20045;-62
2024/03/14 06:35:09;;;;;;;5.18;2.78;;;10.20;99.90;;;;;;4156293;28;20038;-63
2024/03/14 06:37:09;;;;;;;4.32;2.95;;;10.20;99.90;;;;;;4147644;28;20383;-63
2024/03/14 06:39:11;;;;;;;7.43;3.88;;;10.20;99.90;;;;;;4154192;28;20045;-63
2024/03/14 06:41:13;;;;;;;7.03;4.13;;;10.20;99.90;;;;;;4153937;28;20434;-63
2024/03/14 06:43:14;;;;;;;5.85;3.78;;;10.20;99.90;;;;;;4159424;28;20418;-62
2024/03/14 06:45:15;;;;;;;5.18;3.22;;;10.20;99.90;;;;;;4148447;28;20466;-63
2024/03/14 06:47:18;;;;;;;4.93;3.20;;;10.30;99.90;;;;;;4152684;28;20128;-63
2024/03/14 06:49:19;;;;;;;7.72;3.40;;;10.30;99.90;;;;;;4150689;28;20049;-63
2024/03/14 06:51:19;;;;;;;7.57;3.47;;;10.30;99.90;;;;;;4146584;28;20620;-63
2024/03/14 06:53:20;;;;;;;7.35;3.05;;;10.40;99.90;;;;;;4154573;28;20029;-63
2024/03/14 06:55:21;;;;;;;5.82;3.00;;;10.60;99.90;;;;;;4152488;28;20063;-63
2024/03/14 06:57:21;;;;;;;4.45;2.60;;;11.00;99.90;;;;;;4145025;28;20061;-63
2024/03/14 06:59:26;;;;;;;5.70;3.58;;;11.20;99.90;;;;;;4152325;28;20405;-63
2024/03/14 07:01:26;;;;;;;5.18;3.22;;;11.20;99.90;;;;;;4157409;28;20052;-63
2024/03/14 07:03:27;;;;;;;4.18;2.65;;;11.20;99.90;;;;;;4159114;28;20033;-63
2024/03/14 07:05:28;;;;;;;4.93;2.75;;;11.20;99.90;;;;;;4156725;28;20154;-63
2024/03/14 07:07:29;;;;;;;3.50;2.67;;;11.20;99.90;;;;;;4158011;28;20049;-63
2024/03/14 07:09:30;;;;;;;3.97;3.00;;;11.20;99.90;;;;;;4158705;28;20060;-63
2024/03/14 07:11:31;;;;;;;6.63;3.28;;;11.60;99.90;;;;;;4170812;28;20486;-63
2024/03/14 07:13:35;;;;;;;4.63;3.00;;;11.60;99.90;;;;;;4156948;28;20049;-63
2024/03/14 07:15:36;;;;;;;4.65;2.63;;;11.50;99.90;;;;;;4139777;28;20045;-63
2024/03/14 07:17:37;;;;;;;4.80;2.75;;;11.50;99.90;;;;;;4155760;28;20029;-63
2024/03/14 07:19:37;;;;;;;3.88;2.60;;;11.50;99.90;;;;;;4155604;28;21202;-63
2024/03/14 07:21:38;;;;;;;4.63;2.80;;;11.40;99.90;;;;;;4155508;28;20037;-63
2024/03/14 07:23:39;;;;;;;3.25;2.40;;;11.30;99.90;;;;;;4155967;28;20071;-64
2024/03/14 07:25:41;;;;;;;4.45;2.97;;;11.30;99.90;;;;;;4170196;28;20087;-63
2024/03/14 07:27:43;;;;;;;7.47;3.50;;;11.20;99.90;;;;;;4155755;28;20043;-63
2024/03/14 07:29:47;;;;;;;5.72;3.20;;;11.20;99.90;;;;;;4156439;28;20087;-63
2024/03/14 07:31:51;;;;;;;11.13;3.60;;;11.20;99.90;;;;;;4152621;28;20474;-62
2024/03/14 07:33:52;;;;;;;12.73;4.60;;;11.10;99.90;;;;;;4155008;28;20118;-62
2024/03/14 07:35:54;;;;;;;14.23;4.57;;;11.10;99.90;;;;;;4154506;28;20116;-62
2024/03/14 07:37:55;;;;;;;7.33;3.80;;;11.20;99.90;;;;;;4156905;28;20043;-62
2024/03/14 07:39:56;;;;;;;12.60;4.65;;;11.10;99.90;;;;;;4150323;28;20128;-62
2024/03/14 07:41:58;;;;;;;12.60;4.22;;;11.10;99.90;;;;;;4155679;28;20042;-63
2024/03/14 07:43:58;;;;;;;10.93;3.75;;;11.20;99.90;;;;;;4158851;28;20026;-64
2024/03/14 07:46:02;;;;;;;8.25;3.97;;;11.10;99.90;;;;;;4157950;28;20038;-64
2024/03/14 07:48:04;;;;;;;8.60;3.80;;;11.20;99.90;;;;;;4155298;28;20557;-64
2024/03/14 07:50:08;;;;;;;7.55;3.97;;;11.30;99.90;;;;;;4157144;28;20069;-64
2024/03/14 07:52:09;;;;;;;6.00;3.13;;;11.60;99.90;;;;;;4156025;28;20049;-64
2024/03/14 07:54:11;;;;;;;4.97;3.08;;;11.80;99.90;;;;;;4156156;28;20393;-63
2024/03/14 07:56:13;;;;;;;5.20;3.05;;;12.00;99.90;;;;;;4153927;28;20068;-64
2024/03/14 07:58:13;;;;;;;4.28;2.55;;;12.10;99.90;;;;;;4155439;28;20103;-64
2024/03/14 08:00:15;;;;;;;3.55;2.45;;;12.10;99.90;;;;;;4154550;28;20042;-64
2024/03/14 08:02:16;;;;;;;4.47;2.50;;;12.20;99.90;;;;;;4157102;28;20140;-64
2024/03/14 08:04:22;;;;;;;3.78;2.67;;;12.20;99.90;;;;;;4155964;28;20077;-64
2024/03/14 08:06:24;;;;;;;7.80;2.95;;;12.30;99.90;;;;;;4156105;28;20048;-64
2024/03/14 08:08:27;;;;;;;5.70;2.83;;;12.20;99.90;;;;;;4153649;28;20044;-64
2024/03/14 08:10:28;;;;;;;5.88;2.70;;;12.20;99.90;;;;;;4152521;28;20141;-64
2024/03/14 08:12:32;;;;;;;4.95;2.80;;;12.10;99.90;;;;;;4152340;28;20043;-64
2024/03/14 08:14:36;;;;;;;4.93;2.63;;;12.10;99.90;;;;;;4154779;28;20053;-63
2024/03/14 08:16:36;;;;;;;4.72;2.65;;;12.10;99.90;;;;;;4154076;28;20030;-64
2024/03/14 08:18:41;;;;;;;5.65;3.22;;;12.20;99.90;;;;;;4153172;28;20045;-66
2024/03/14 08:20:43;;;;;;;6.13;2.95;;;12.20;99.90;;;;;;4150761;28;20434;-65
2024/03/14 08:22:44;;;;;;;4.22;2.95;;;12.20;99.90;;;;;;4154088;28;20564;-64
2024/03/14 08:24:49;;;;;;;5.10;2.83;;;12.20;99.90;;;;;;4151958;28;20045;-64
2024/03/14 08:26:50;;;;;;;7.05;2.78;;;12.20;99.90;;;;;;4152509;28;20037;-64
2024/03/14 08:28:54;;;;;;;6.07;3.20;;;12.20;99.90;;;;;;4151148;28;20099;-66
2024/03/14 08:30:55;;;;;;;6.85;3.17;;;12.20;99.90;;;;;;4153733;28;20072;-65
2024/03/14 08:32:57;;;;;;;5.75;3.25;;;12.20;99.90;;;;;;4169134;28;20056;-63
2024/03/14 08:34:58;;;;;;;6.80;3.40;;;12.20;99.90;;;;;;4156041;28;20037;-64
2024/03/14 08:37:00;;;;;;;6.85;3.17;;;12.20;99.90;;;;;;4153369;28;21739;-64
2024/03/14 08:39:01;;;;;;;4.65;2.80;;;12.10;99.90;;;;;;4152702;28;20518;-64
2024/03/14 08:41:03;;;;;;;5.65;3.22;;;12.10;99.90;;;;;;4152598;28;20088;-64
2024/03/14 08:43:05;;;;;;;6.45;3.42;;;12.10;99.90;;;;;;4154173;28;20128;-64
2024/03/14 08:45:05;;;;;;;4.35;2.50;;;12.10;99.90;;;;;;4154767;28;20038;-63
2024/03/14 08:47:08;;;;;;;4.30;2.80;;;12.10;99.90;;;;;;4155217;28;20560;-63
2024/03/14 08:49:08;;;;;;;4.38;2.63;;;12.10;99.90;;;;;;4151771;28;20141;-64
2024/03/14 08:51:09;;;;;;;6.30;3.22;;;12.20;99.90;;;;;;4155047;28;20068;-64
2024/03/14 08:53:12;;;;;;;5.43;2.80;;;12.20;99.90;;;;;;4147738;28;20042;-64
2024/03/14 08:55:23;;;;;;;6.05;2.70;;;12.20;99.90;;;;;;4155156;28;20021;-74
2024/03/14 08:57:25;;;;;;;4.53;2.58;;;12.30;99.90;;;;;;4152975;28;20396;-73
2024/03/14 08:59:28;;;;;;;;;;;12.40;99.90;;;;;;4154034;28;20132;-74
2024/03/14 09:01:29;;;;;;;3.67;2.80;;;12.50;99.90;;;;;;4143906;28;20411;-73
2024/03/14 09:03:30;;;;;;;2.75;2.33;;;12.60;99.90;;;;;;4144309;28;20281;-73
2024/03/14 09:05:32;;;;;;;5.95;3.10;;;12.70;99.90;;;;;;4149926;28;20492;-72
2024/03/14 09:07:34;;;;;;;6.05;2.80;;;12.80;99.90;;;;;;4147937;28;20048;-74
2024/03/14 09:09:35;;;;;;;5.70;3.20;;;13.00;99.90;;;;;;4150920;28;20521;-73
2024/03/14 09:11:35;;;;;;;6.80;3.08;;;13.10;99.90;;;;;;4154443;28;20037;-73
2024/03/14 09:13:36;;;;;;;5.75;3.13;;;13.20;99.90;;;;;;4153333;28;20041;-73
2024/03/14 09:15:37;;;;;;;5.00;2.53;;;13.30;99.90;;;;;;4154985;28;20111;-74
2024/03/14 09:17:37;;;;;;;4.57;2.65;;;13.40;99.90;;;;;;4151629;28;20045;-73
2024/03/14 09:19:39;;;;;;;4.90;2.95;;;13.60;99.90;;;;;;4151734;28;20050;-73
2024/03/14 09:21:40;;;;;;;3.55;2.33;;;13.70;99.90;;;;;;4153438;28;20409;-74
2024/03/14 09:23:40;;;;;;;6.55;2.40;;;13.70;99.90;;;;;;4153184;28;20155;-74
2024/03/14 09:25:41;;;;;;;6.82;3.10;;;13.70;99.90;;;;;;4153911;28;20120;-72
2024/03/14 09:27:45;;;;;;;4.07;2.40;;;13.70;99.90;;;;;;4152655;28;20042;-73
2024/03/14 09:29:46;;;;;;;3.53;2.47;;;13.80;99.90;;;;;;4154143;28;20041;-74
2024/03/14 09:31:46;;;;;;;5.22;2.53;;;13.90;99.90;;;;;;4153843;28;20162;-74
2024/03/14 09:33:47;;;;;;;4.63;2.70;;;13.90;99.90;;;;;;4154873;28;20124;-73
2024/03/14 09:35:47;;;;;;;11.18;2.30;;;13.90;99.90;;;;;;4151089;28;20501;-74
2024/03/14 09:37:48;;;;;;;4.15;2.95;;;14.00;99.90;;;;;;4167950;28;20036;-73
2024/03/14 09:39:49;;;;;;;4.00;2.17;;;14.10;99.90;;;;;;4149170;28;20065;-73
2024/03/14 09:41:50;;;;;;;4.82;2.40;;;14.20;99.90;;;;;;4151664;28;20037;-74
2024/03/14 09:43:51;;;;;;;3.00;2.00;;;14.20;99.90;;;;;;4154520;28;20052;-72
2024/03/14 09:45:54;;;;;;;3.95;2.40;;;14.30;99.90;;;;;;4153100;28;20668;-73
2024/03/14 09:47:56;;;;;;;3.72;2.15;;;14.30;99.90;;;;;;4153178;28;20065;-72
2024/03/14 09:49:59;;;;;;;2.55;2.20;;;14.30;99.90;;;;;;4151286;28;20049;-73
2024/03/14 09:51:59;;;;;;;2.60;1.80;;;14.40;99.90;;;;;;4152075;28;20046;-73
2024/03/14 09:54:00;;;;;;;4.57;2.50;;;14.50;99.90;;;;;;4167902;28;20032;-73
2024/03/14 09:56:01;;;;;;;2.53;1.90;;;14.50;99.90;;;;;;4151824;28;20038;-72
2024/03/14 09:58:04;;;;;;;2.15;1.80;;;14.60;99.90;;;;;;4151973;28;20039;-73
2024/03/14 10:00:15;;;;;;;5.40;2.58;;;14.60;99.90;;;;;;4153183;28;20062;-72
2024/03/14 10:02:21;;;;;;;3.78;2.22;;;14.60;99.90;;;;;;4153317;28;20453;-73
2024/03/14 10:04:22;;;;;;;3.72;2.17;;;14.60;99.90;;;;;;4151832;28;20667;-63
2024/03/14 10:06:22;;;;;;;3.20;2.20;;;14.70;99.90;;;;;;4147011;28;20040;-63
2024/03/14 10:08:27;;;;;;;2.45;1.80;;;14.80;99.90;;;;;;4182611;28;20505;-63
2024/03/14 10:10:31;;;;;;;2.83;2.08;;;14.90;99.90;;;;;;4148546;28;20044;-64
2024/03/14 10:12:34;;;;;;;3.55;1.83;;;14.90;99.90;;;;;;4148368;28;20136;-64
2024/03/14 10:14:36;;;;;;;3.88;2.20;;;15.00;99.90;;;;;;4149875;28;20041;-63
2024/03/14 10:16:37;;;;;;;3.92;2.35;;;15.00;99.90;;;;;;4150687;28;20041;-63
2024/03/14 10:18:39;;;;;;;3.45;2.15;;;15.10;99.90;;;;;;4150807;28;20071;-64
2024/03/14 10:20:40;;;;;;;2.58;2.00;;;15.00;99.90;;;;;;4147715;28;20099;-63
2024/03/14 10:22:41;;;;;;;2.17;1.98;;;15.00;99.90;;;;;;4151131;28;20095;-64
2024/03/14 10:24:41;;;;;;;2.40;1.70;;;15.00;99.90;;;;;;4149401;28;20060;-64
2024/03/14 10:26:44;;;;;;;3.25;2.10;;;15.00;99.90;;;;;;4146517;28;20037;-64
2024/03/14 10:28:45;;;;;;;2.97;2.30;;;15.00;99.90;;;;;;4149073;28;20072;-64
2024/03/14 10:30:52;;;;;;;4.38;2.33;;;15.00;99.90;;;;;;4146188;28;20514;-64
2024/03/14 10:32:54;;;;;;;3.13;2.00;;;15.00;99.90;;;;;;4152100;28;20120;-63
2024/03/14 10:34:55;;;;;;;2.65;1.88;;;15.00;99.90;;;;;;4151557;28;20445;-64
2024/03/14 10:36:58;;;;;;;3.33;2.15;;;15.10;99.90;;;;;;4148832;28;20064;-64
2024/03/14 10:39:01;;;;;;;3.33;1.88;;;15.10;99.90;;;;;;4145479;28;20490;-63